createdAt,value
2022-12-14T00:00:20.946Z,11
2022-12-14T00:01:20.921Z,11
2022-12-14T00:02:20.953Z,10
2022-12-14T00:03:21.072Z,10
2022-12-14T00:04:20.940Z,11
2022-12-14T00:05:20.953Z,10
2022-12-14T00:06:20.917Z,11
2022-12-14T00:07:20.976Z,10
2022-12-14T00:08:20.904Z,11
2022-12-14T00:09:20.921Z,11
2022-12-14T00:10:20.935Z,10
2022-12-14T00:11:20.929Z,11
2022-12-14T00:12:21.400Z,9
2022-12-14T00:13:21.439Z,10
2022-12-14T00:14:20.946Z,12
2022-12-14T00:15:20.956Z,10
2022-12-14T00:16:20.948Z,11
2022-12-14T00:17:20.972Z,11
2022-12-14T00:18:22.592Z,10
2022-12-14T00:19:20.906Z,12
2022-12-14T00:20:20.969Z,10
2022-12-14T00:21:20.993Z,10
2022-12-14T00:22:20.912Z,10
2022-12-14T00:23:20.910Z,10
2022-12-14T00:24:20.909Z,10
2022-12-14T00:25:20.895Z,8
2022-12-14T00:26:21.036Z,10
2022-12-14T00:27:20.914Z,9
2022-12-14T00:28:20.974Z,11
2022-12-14T00:29:21.008Z,9
2022-12-14T00:30:20.900Z,9
2022-12-14T00:31:21.055Z,10
2022-12-14T00:32:20.902Z,11
2022-12-14T00:33:20.903Z,10
2022-12-14T00:34:20.902Z,9
2022-12-14T00:35:20.922Z,9
2022-12-14T00:36:20.996Z,11
2022-12-14T00:37:20.986Z,10
2022-12-14T00:38:20.897Z,8
2022-12-14T00:39:20.922Z,9
2022-12-14T00:40:20.905Z,10
2022-12-14T00:41:20.929Z,8
2022-12-14T00:42:20.904Z,9
2022-12-14T00:43:20.903Z,12
2022-12-14T00:44:20.976Z,9
2022-12-14T00:45:21.044Z,10
2022-12-14T00:46:21.337Z,11
2022-12-14T00:47:20.902Z,9
2022-12-14T00:48:21.110Z,10
2022-12-14T00:49:20.928Z,11
2022-12-14T00:50:20.913Z,12
2022-12-14T00:51:20.890Z,9
2022-12-14T00:52:20.951Z,10
2022-12-14T00:53:20.978Z,12
2022-12-14T00:54:20.963Z,11
2022-12-14T00:55:20.968Z,9
2022-12-14T00:56:20.888Z,9
2022-12-14T00:57:20.883Z,10
2022-12-14T00:58:20.905Z,10
2022-12-14T00:59:26.991Z,9
2022-12-14T01:00:20.949Z,9
2022-12-14T01:01:21.101Z,11
2022-12-14T01:02:21.068Z,10
2022-12-14T01:03:20.981Z,12
2022-12-14T01:04:20.945Z,9
2022-12-14T01:05:20.905Z,12
2022-12-14T01:06:20.900Z,10
2022-12-14T01:07:21.046Z,11
2022-12-14T01:08:20.958Z,9
2022-12-14T01:09:20.901Z,10
2022-12-14T01:10:20.938Z,10
2022-12-14T01:11:20.890Z,10
2022-12-14T01:12:20.986Z,9
2022-12-14T01:13:20.920Z,10
2022-12-14T01:14:20.906Z,10
2022-12-14T01:15:20.964Z,9
2022-12-14T01:16:21.048Z,10
2022-12-14T01:17:20.906Z,11
2022-12-14T01:18:20.913Z,11
2022-12-14T01:19:20.894Z,11
2022-12-14T01:20:20.978Z,10
2022-12-14T01:21:20.950Z,10
2022-12-14T01:22:20.936Z,10
2022-12-14T01:23:21.043Z,10
2022-12-14T01:24:21.062Z,10
2022-12-14T01:25:20.896Z,9
2022-12-14T01:26:20.956Z,9
2022-12-14T01:27:20.895Z,10
2022-12-14T01:28:20.901Z,10
2022-12-14T01:29:20.898Z,10
2022-12-14T01:30:20.892Z,10
2022-12-14T01:31:21.025Z,10
2022-12-14T01:32:20.899Z,9
2022-12-14T01:33:20.894Z,9
2022-12-14T01:34:20.912Z,9
2022-12-14T01:35:21.036Z,9
2022-12-14T01:36:20.920Z,10
2022-12-14T01:37:20.895Z,10
2022-12-14T01:38:21.054Z,10
2022-12-14T01:39:20.958Z,10
2022-12-14T01:40:20.946Z,11
2022-12-14T01:41:20.953Z,10
2022-12-14T01:42:20.967Z,9
2022-12-14T01:43:20.881Z,9
2022-12-14T01:44:20.983Z,10
2022-12-14T01:45:20.896Z,10
2022-12-14T01:46:21.126Z,10
2022-12-14T01:47:20.937Z,9
2022-12-14T01:48:20.912Z,9
2022-12-14T01:49:20.881Z,12
2022-12-14T01:50:20.913Z,11
2022-12-14T01:51:20.945Z,10
2022-12-14T01:52:20.929Z,9
2022-12-14T01:53:20.938Z,11
2022-12-14T01:54:21.038Z,11
2022-12-14T01:55:21.135Z,10
2022-12-14T01:56:21.212Z,10
2022-12-14T01:57:21.060Z,9
2022-12-14T01:58:20.896Z,11
2022-12-14T01:59:20.898Z,9
2022-12-14T02:00:20.984Z,10
2022-12-14T02:01:21.167Z,8
2022-12-14T02:02:21.149Z,10
2022-12-14T02:03:21.024Z,10
2022-12-14T02:04:20.877Z,9
2022-12-14T02:05:20.908Z,9
2022-12-14T02:06:20.916Z,10
2022-12-14T02:07:20.879Z,8
2022-12-14T02:08:20.939Z,9
2022-12-14T02:09:20.932Z,11
2022-12-14T02:10:21.008Z,10
2022-12-14T02:11:20.956Z,8
2022-12-14T02:12:20.945Z,9
2022-12-14T02:13:20.900Z,10
2022-12-14T02:14:20.966Z,8
2022-12-14T02:15:20.876Z,10
2022-12-14T02:16:20.950Z,10
2022-12-14T02:17:20.892Z,9
2022-12-14T02:18:21.004Z,10
2022-12-14T02:19:21.005Z,8
2022-12-14T02:20:20.901Z,9
2022-12-14T02:21:20.903Z,9
2022-12-14T02:22:20.897Z,9
2022-12-14T02:23:20.885Z,8
2022-12-14T02:24:20.932Z,9
2022-12-14T02:25:20.938Z,8
2022-12-14T02:26:20.950Z,7
2022-12-14T02:27:20.894Z,10
2022-12-14T02:28:20.889Z,8
2022-12-14T02:29:20.868Z,7
2022-12-14T02:30:20.988Z,10
2022-12-14T02:31:20.989Z,8
2022-12-14T02:32:20.872Z,9
2022-12-14T02:33:20.988Z,10
2022-12-14T02:34:21.008Z,10
2022-12-14T02:35:20.890Z,10
2022-12-14T02:36:20.881Z,9
2022-12-14T02:37:20.909Z,9
2022-12-14T02:38:20.919Z,9
2022-12-14T02:39:20.888Z,10
2022-12-14T02:40:20.883Z,10
2022-12-14T02:41:20.934Z,9
2022-12-14T02:42:20.910Z,9
2022-12-14T02:43:20.946Z,8
2022-12-14T02:44:20.959Z,9
2022-12-14T02:45:20.979Z,8
2022-12-14T02:46:21.029Z,9
2022-12-14T02:47:20.916Z,10
2022-12-14T02:48:20.881Z,8
2022-12-14T02:49:20.999Z,10
2022-12-14T02:50:20.995Z,10
2022-12-14T02:51:20.872Z,10
2022-12-14T02:52:20.876Z,8
2022-12-14T02:53:20.936Z,9
2022-12-14T02:54:20.883Z,9
2022-12-14T02:55:20.931Z,10
2022-12-14T02:56:20.935Z,8
2022-12-14T02:57:21.039Z,9
2022-12-14T02:58:21.061Z,9
2022-12-14T02:59:20.945Z,10
2022-12-14T03:00:20.882Z,9
2022-12-14T03:01:21.050Z,8
2022-12-14T03:02:21.117Z,9
2022-12-14T03:03:20.970Z,7
2022-12-14T03:04:20.969Z,8
2022-12-14T03:05:21.006Z,9
2022-12-14T03:06:21.003Z,9
2022-12-14T03:07:20.911Z,7
2022-12-14T03:08:20.875Z,8
2022-12-14T03:09:20.871Z,9
2022-12-14T03:10:20.865Z,10
2022-12-14T03:11:20.923Z,9
2022-12-14T03:12:20.880Z,9
2022-12-14T03:13:20.943Z,9
2022-12-14T03:14:20.882Z,9
2022-12-14T03:15:20.915Z,9
2022-12-14T03:16:21.006Z,9
2022-12-14T03:17:20.965Z,9
2022-12-14T03:18:20.869Z,9
2022-12-14T03:19:20.894Z,9
2022-12-14T03:20:20.977Z,8
2022-12-14T03:21:20.921Z,10
2022-12-14T03:22:20.866Z,9
2022-12-14T03:23:21.002Z,9
2022-12-14T03:24:20.925Z,9
2022-12-14T03:25:20.896Z,9
2022-12-14T03:26:20.907Z,7
2022-12-14T03:27:20.911Z,9
2022-12-14T03:28:20.956Z,8
2022-12-14T03:29:20.932Z,8
2022-12-14T03:30:43.904Z,9
2022-12-14T03:31:21.031Z,10
2022-12-14T03:32:20.866Z,8
2022-12-14T03:33:20.872Z,9
2022-12-14T03:34:20.879Z,9
2022-12-14T03:35:20.871Z,9
2022-12-14T03:36:20.912Z,8
2022-12-14T03:37:20.990Z,8
2022-12-14T03:38:20.868Z,10
2022-12-14T03:39:20.871Z,8
2022-12-14T03:40:20.867Z,8
2022-12-14T03:41:20.859Z,9
2022-12-14T03:42:20.909Z,9
2022-12-14T03:43:20.941Z,10
2022-12-14T03:44:20.927Z,8
2022-12-14T03:45:20.942Z,8
2022-12-14T03:46:20.974Z,8
2022-12-14T03:47:20.862Z,9
2022-12-14T03:48:20.874Z,7
2022-12-14T03:49:20.875Z,8
2022-12-14T03:50:20.929Z,8
2022-12-14T03:51:21.042Z,9
2022-12-14T03:52:21.148Z,11
2022-12-14T03:53:21.088Z,8
2022-12-14T03:54:21.037Z,9
2022-12-14T03:55:20.879Z,9
2022-12-14T03:56:20.863Z,8
2022-12-14T03:57:20.869Z,8
2022-12-14T03:58:20.867Z,9
2022-12-14T03:59:20.869Z,8
2022-12-14T04:00:20.934Z,9
2022-12-14T04:01:21.087Z,10
2022-12-14T04:02:20.925Z,9
2022-12-14T04:03:20.945Z,7
2022-12-14T04:04:20.848Z,8
2022-12-14T04:05:20.869Z,8
2022-12-14T04:06:20.853Z,8
2022-12-14T04:07:20.876Z,9
2022-12-14T04:08:20.901Z,9
2022-12-14T04:09:20.856Z,7
2022-12-14T04:10:20.875Z,8
2022-12-14T04:11:20.880Z,7
2022-12-14T04:12:21.018Z,8
2022-12-14T04:13:20.862Z,7
2022-12-14T04:14:20.915Z,8
2022-12-14T04:15:20.923Z,8
2022-12-14T04:16:21.028Z,7
2022-12-14T04:17:20.938Z,9
2022-12-14T04:18:20.859Z,8
2022-12-14T04:19:20.883Z,6
2022-12-14T04:20:20.959Z,10
2022-12-14T04:21:20.873Z,8
2022-12-14T04:22:20.960Z,7
2022-12-14T04:23:20.920Z,8
2022-12-14T04:24:20.909Z,9
2022-12-14T04:25:20.880Z,7
2022-12-14T04:26:20.884Z,7
2022-12-14T04:27:20.886Z,8
2022-12-14T04:28:21.000Z,7
2022-12-14T04:29:21.056Z,7
2022-12-14T04:30:20.853Z,7
2022-12-14T04:31:21.066Z,9
2022-12-14T04:32:21.073Z,8
2022-12-14T04:33:20.872Z,7
2022-12-14T04:34:21.036Z,7
2022-12-14T04:35:20.925Z,7
2022-12-14T04:36:21.127Z,8
2022-12-14T04:37:20.980Z,6
2022-12-14T04:38:20.863Z,9
2022-12-14T04:39:20.968Z,7
2022-12-14T04:40:21.003Z,7
2022-12-14T04:41:20.898Z,8
2022-12-14T04:42:20.884Z,8
2022-12-14T04:43:20.849Z,7
2022-12-14T04:44:20.862Z,9
2022-12-14T04:45:20.947Z,7
2022-12-14T04:46:20.938Z,8
2022-12-14T04:47:21.128Z,8
2022-12-14T04:48:21.184Z,7
2022-12-14T04:49:20.850Z,8
2022-12-14T04:50:20.858Z,8
2022-12-14T04:51:20.858Z,9
2022-12-14T04:52:20.924Z,8
2022-12-14T04:53:20.867Z,8
2022-12-14T04:54:20.860Z,9
2022-12-14T04:55:20.979Z,8
2022-12-14T04:56:20.891Z,10
2022-12-14T04:57:20.891Z,9
2022-12-14T04:58:20.851Z,7
2022-12-14T04:59:20.891Z,9
2022-12-14T05:00:20.904Z,9
2022-12-14T05:01:21.025Z,9
2022-12-14T05:02:21.052Z,10
2022-12-14T05:03:20.917Z,8
2022-12-14T05:04:20.937Z,10
2022-12-14T05:05:20.934Z,9
2022-12-14T05:06:20.864Z,9
2022-12-14T05:07:20.862Z,7
2022-12-14T05:08:20.969Z,10
2022-12-14T05:09:20.863Z,8
2022-12-14T05:10:20.915Z,9
2022-12-14T05:11:51.990Z,9
2022-12-14T05:12:21.003Z,10
2022-12-14T05:13:20.894Z,8
2022-12-14T05:14:21.064Z,11
2022-12-14T05:15:20.897Z,9
2022-12-14T05:16:21.072Z,8
2022-12-14T05:17:20.852Z,9
2022-12-14T05:18:21.012Z,9
2022-12-14T05:19:21.026Z,8
2022-12-14T05:20:20.850Z,9
2022-12-14T05:21:20.844Z,9
2022-12-14T05:22:20.940Z,10
2022-12-14T05:23:20.844Z,8
2022-12-14T05:24:20.840Z,10
2022-12-14T05:25:20.859Z,11
2022-12-14T05:26:20.967Z,9
2022-12-14T05:27:20.871Z,10
2022-12-14T05:28:20.903Z,11
2022-12-14T05:29:20.908Z,10
2022-12-14T05:30:20.982Z,14
2022-12-14T05:31:20.884Z,14
2022-12-14T05:32:20.860Z,14
2022-12-14T05:33:20.863Z,10
2022-12-14T05:34:20.901Z,10
2022-12-14T05:35:20.851Z,12
2022-12-14T05:36:20.862Z,14
2022-12-14T05:37:20.850Z,11
2022-12-14T05:38:20.840Z,9
2022-12-14T05:39:20.856Z,10
2022-12-14T05:40:20.841Z,10
2022-12-14T05:41:20.958Z,8
2022-12-14T05:42:20.894Z,8
2022-12-14T05:43:20.927Z,8
2022-12-14T05:44:20.991Z,9
2022-12-14T05:45:20.883Z,10
2022-12-14T05:46:20.928Z,8
2022-12-14T05:47:20.845Z,8
2022-12-14T05:48:20.897Z,9
2022-12-14T05:49:20.922Z,9
2022-12-14T05:50:20.928Z,9
2022-12-14T05:51:20.861Z,8
2022-12-14T05:52:20.932Z,9
2022-12-14T05:53:20.945Z,8
2022-12-14T05:54:20.880Z,9
2022-12-14T05:55:20.946Z,10
2022-12-14T05:56:20.848Z,7
2022-12-14T05:57:20.964Z,10
2022-12-14T05:58:20.978Z,10
2022-12-14T05:59:20.870Z,8
2022-12-14T06:00:20.850Z,8
2022-12-14T06:01:20.960Z,8
2022-12-14T06:02:21.002Z,9
2022-12-14T06:03:20.854Z,8
2022-12-14T06:04:20.987Z,9
2022-12-14T06:05:20.895Z,9
2022-12-14T06:06:20.922Z,10
2022-12-14T06:07:26.022Z,9
2022-12-14T06:08:20.847Z,9
2022-12-14T06:09:20.884Z,8
2022-12-14T06:10:20.849Z,8
2022-12-14T06:11:20.840Z,8
2022-12-14T06:12:20.849Z,8
2022-12-14T06:13:20.922Z,9
2022-12-14T06:14:20.868Z,8
2022-12-14T06:15:20.976Z,8
2022-12-14T06:16:20.896Z,8
2022-12-14T06:17:20.892Z,9
2022-12-14T06:18:20.885Z,8
2022-12-14T06:19:20.839Z,8
2022-12-14T06:20:20.914Z,10
2022-12-14T06:21:20.875Z,10
2022-12-14T06:22:20.843Z,7
2022-12-14T06:23:20.919Z,9
2022-12-14T06:24:20.853Z,8
2022-12-14T06:25:20.944Z,9
2022-12-14T06:26:20.835Z,8
2022-12-14T06:27:20.833Z,9
2022-12-14T06:28:20.984Z,10
2022-12-14T06:29:20.952Z,12
2022-12-14T06:30:21.067Z,10
2022-12-14T06:31:20.977Z,9
2022-12-14T06:32:20.844Z,10
2022-12-14T06:33:20.838Z,9
2022-12-14T06:34:26.352Z,9
2022-12-14T06:35:20.844Z,8
2022-12-14T06:36:20.889Z,8
2022-12-14T06:37:20.921Z,8
2022-12-14T06:38:20.921Z,8
2022-12-14T06:39:20.925Z,9
2022-12-14T06:40:20.934Z,9
2022-12-14T06:41:20.836Z,8
2022-12-14T06:42:20.896Z,10
2022-12-14T06:43:20.836Z,8
2022-12-14T06:44:20.877Z,9
2022-12-14T06:45:20.916Z,8
2022-12-14T06:46:20.950Z,9
2022-12-14T06:47:20.838Z,9
2022-12-14T06:48:20.831Z,8
2022-12-14T06:49:20.832Z,7
2022-12-14T06:50:20.823Z,9
2022-12-14T06:51:20.914Z,9
2022-12-14T06:52:26.531Z,9
2022-12-14T06:53:20.913Z,8
2022-12-14T06:54:20.919Z,8
2022-12-14T06:55:20.844Z,8
2022-12-14T06:56:20.943Z,10
2022-12-14T06:57:20.840Z,9
2022-12-14T06:58:20.831Z,8
2022-12-14T06:59:20.892Z,9
2022-12-14T07:00:20.976Z,9
2022-12-14T07:01:21.037Z,8
2022-12-14T07:02:21.195Z,6
2022-12-14T07:03:20.944Z,7
2022-12-14T07:04:20.836Z,7
2022-12-14T07:05:20.843Z,9
2022-12-14T07:06:20.885Z,8
2022-12-14T07:07:20.921Z,7
2022-12-14T07:08:20.953Z,9
2022-12-14T07:09:20.908Z,7
2022-12-14T07:10:20.997Z,8
2022-12-14T07:11:21.037Z,10
2022-12-14T07:12:21.043Z,8
2022-12-14T07:13:21.012Z,10
2022-12-14T07:14:21.062Z,8
2022-12-14T07:15:21.196Z,10
2022-12-14T07:16:21.348Z,8
2022-12-14T07:17:20.864Z,8
2022-12-14T07:18:20.858Z,8
2022-12-14T07:19:20.839Z,8
2022-12-14T07:20:20.822Z,8
2022-12-14T07:21:20.991Z,8
2022-12-14T07:22:20.838Z,8
2022-12-14T07:23:26.215Z,8
2022-12-14T07:24:21.015Z,7
2022-12-14T07:25:20.843Z,7
2022-12-14T07:26:20.926Z,8
2022-12-14T07:27:20.837Z,8
2022-12-14T07:28:20.836Z,8
2022-12-14T07:29:20.867Z,7
2022-12-14T07:30:20.825Z,10
2022-12-14T07:31:21.105Z,11
2022-12-14T07:32:20.927Z,8
2022-12-14T07:33:20.922Z,8
2022-12-14T07:34:20.962Z,9
2022-12-14T07:35:20.993Z,10
2022-12-14T07:36:20.907Z,8
2022-12-14T07:37:20.826Z,8
2022-12-14T07:38:21.003Z,8
2022-12-14T07:39:20.887Z,10
2022-12-14T07:40:20.835Z,11
2022-12-14T07:41:23.163Z,9
2022-12-14T07:42:20.825Z,8
2022-12-14T07:43:20.825Z,10
2022-12-14T07:44:20.823Z,9
2022-12-14T07:45:20.832Z,10
2022-12-14T07:46:20.993Z,8
2022-12-14T07:47:20.931Z,8
2022-12-14T07:48:20.829Z,8
2022-12-14T07:49:20.928Z,10
2022-12-14T07:50:20.834Z,10
2022-12-14T07:51:20.828Z,10
2022-12-14T07:52:20.825Z,7
2022-12-14T07:53:20.841Z,7
2022-12-14T07:54:20.879Z,9
2022-12-14T07:55:20.913Z,7
2022-12-14T07:56:20.816Z,10
2022-12-14T07:57:20.832Z,10
2022-12-14T07:58:20.834Z,8
2022-12-14T07:59:20.843Z,9
2022-12-14T08:00:20.826Z,9
2022-12-14T08:01:20.987Z,9
2022-12-14T08:02:21.058Z,9
2022-12-14T08:03:20.930Z,8
2022-12-14T08:04:20.915Z,9
2022-12-14T08:05:20.823Z,9
2022-12-14T08:06:20.875Z,10
2022-12-14T08:07:20.825Z,10
2022-12-14T08:08:20.851Z,9
2022-12-14T08:09:20.834Z,10
2022-12-14T08:10:20.875Z,10
2022-12-14T08:11:20.820Z,9
2022-12-14T08:12:20.839Z,10
2022-12-14T08:13:20.829Z,9
2022-12-14T08:14:20.934Z,11
2022-12-14T08:15:20.825Z,10
2022-12-14T08:16:20.937Z,9
2022-12-14T08:17:20.946Z,9
2022-12-14T08:18:20.860Z,9
2022-12-14T08:19:20.847Z,9
2022-12-14T08:20:20.872Z,11
2022-12-14T08:21:20.817Z,11
2022-12-14T08:22:20.817Z,10
2022-12-14T08:23:20.824Z,13
2022-12-14T08:24:20.816Z,11
2022-12-14T08:25:21.046Z,12
2022-12-14T08:26:21.081Z,12
2022-12-14T08:27:20.831Z,11
2022-12-14T08:28:20.824Z,12
2022-12-14T08:29:20.823Z,9
2022-12-14T08:30:20.824Z,11
2022-12-14T08:31:20.938Z,12
2022-12-14T08:32:20.828Z,10
2022-12-14T08:33:20.868Z,8
2022-12-14T08:34:20.923Z,11
2022-12-14T08:35:20.825Z,11
2022-12-14T08:36:20.833Z,10
2022-12-14T08:37:20.829Z,10
2022-12-14T08:38:20.815Z,9
2022-12-14T08:39:20.826Z,11
2022-12-14T08:40:20.820Z,10
2022-12-14T08:41:20.868Z,11
2022-12-14T08:42:20.817Z,13
2022-12-14T08:43:24.945Z,11
2022-12-14T08:44:20.831Z,12
2022-12-14T08:45:20.833Z,11
2022-12-14T08:46:20.851Z,11
2022-12-14T08:47:20.838Z,11
2022-12-14T08:48:20.837Z,13
2022-12-14T08:49:20.867Z,11
2022-12-14T08:50:20.826Z,12
2022-12-14T08:51:20.825Z,12
2022-12-14T08:52:20.861Z,11
2022-12-14T08:53:20.879Z,11
2022-12-14T08:54:20.838Z,11
2022-12-14T08:55:25.720Z,11
2022-12-14T08:56:20.857Z,11
2022-12-14T08:57:20.854Z,13
2022-12-14T08:58:21.076Z,10
2022-12-14T08:59:52.301Z,10
2022-12-14T09:00:20.820Z,11
2022-12-14T09:01:20.973Z,13
2022-12-14T09:02:20.960Z,13
2022-12-14T09:03:21.018Z,11
2022-12-14T09:04:20.896Z,12
2022-12-14T09:05:20.858Z,12
2022-12-14T09:06:20.820Z,13
2022-12-14T09:07:21.013Z,14
2022-12-14T09:08:20.824Z,13
2022-12-14T09:09:20.823Z,11
2022-12-14T09:10:20.820Z,11
2022-12-14T09:11:20.819Z,12
2022-12-14T09:12:20.864Z,11
2022-12-14T09:13:20.908Z,11
2022-12-14T09:14:20.824Z,13
2022-12-14T09:15:20.825Z,12
2022-12-14T09:16:20.933Z,14
2022-12-14T09:17:20.824Z,13
2022-12-14T09:18:20.856Z,12
2022-12-14T09:19:20.820Z,12
2022-12-14T09:20:20.867Z,12
2022-12-14T09:21:20.910Z,14
2022-12-14T09:22:21.729Z,12
2022-12-14T09:23:20.812Z,12
2022-12-14T09:24:20.809Z,13
2022-12-14T09:25:20.816Z,13
2022-12-14T09:26:20.867Z,10
2022-12-14T09:27:20.815Z,12
2022-12-14T09:28:20.866Z,13
2022-12-14T09:29:20.892Z,13
2022-12-14T09:30:26.348Z,11
2022-12-14T09:31:20.909Z,13
2022-12-14T09:32:20.831Z,13
2022-12-14T09:33:20.812Z,14
2022-12-14T09:34:20.820Z,12
2022-12-14T09:35:20.801Z,13
2022-12-14T09:36:20.847Z,15
2022-12-14T09:37:20.810Z,13
2022-12-14T09:38:20.806Z,14
2022-12-14T09:39:20.809Z,14
2022-12-14T09:40:20.923Z,12
2022-12-14T09:41:20.811Z,14
2022-12-14T09:42:20.814Z,13
2022-12-14T09:43:20.867Z,12
2022-12-14T09:44:20.854Z,17
2022-12-14T09:45:20.809Z,20
2022-12-14T09:46:20.854Z,26
2022-12-14T09:47:20.801Z,16
2022-12-14T09:48:20.811Z,15
2022-12-14T09:49:20.833Z,14
2022-12-14T09:50:20.809Z,13
2022-12-14T09:51:20.906Z,14
2022-12-14T09:52:20.890Z,13
2022-12-14T09:53:20.859Z,12
2022-12-14T09:54:20.825Z,19
2022-12-14T09:55:20.814Z,16
2022-12-14T09:56:20.813Z,15
2022-12-14T09:57:20.817Z,14
2022-12-14T09:58:20.814Z,14
2022-12-14T09:59:20.862Z,15
2022-12-14T10:00:20.893Z,15
2022-12-14T10:01:20.957Z,16
2022-12-14T10:02:36.380Z,20
2022-12-14T10:03:21.077Z,24
2022-12-14T10:04:20.808Z,23
2022-12-14T10:05:20.800Z,21
2022-12-14T10:06:20.805Z,19
2022-12-14T10:07:20.860Z,18
2022-12-14T10:08:20.894Z,12
2022-12-14T10:09:20.821Z,13
2022-12-14T10:10:20.818Z,15
2022-12-14T10:11:20.815Z,15
2022-12-14T10:12:20.843Z,13
2022-12-14T10:13:20.849Z,14
2022-12-14T10:14:20.810Z,14
2022-12-14T10:15:20.856Z,15
2022-12-14T10:16:20.941Z,16
2022-12-14T10:17:20.808Z,15
2022-12-14T10:18:49.436Z,14
2022-12-14T10:19:20.814Z,15
2022-12-14T10:20:20.809Z,13
2022-12-14T10:21:20.850Z,15
2022-12-14T10:22:20.805Z,14
2022-12-14T10:23:22.739Z,14
2022-12-14T10:24:20.888Z,15
2022-12-14T10:25:20.811Z,14
2022-12-14T10:26:20.801Z,14
2022-12-14T10:27:20.874Z,14
2022-12-14T10:28:20.841Z,15
2022-12-14T10:29:20.887Z,14
2022-12-14T10:30:20.894Z,13
2022-12-14T10:31:20.919Z,15
2022-12-14T10:32:20.978Z,13
2022-12-14T10:33:21.240Z,14
2022-12-14T10:34:20.962Z,14
2022-12-14T10:35:20.875Z,15
2022-12-14T10:36:20.811Z,18
2022-12-14T10:37:20.844Z,13
2022-12-14T10:38:20.842Z,14
2022-12-14T10:39:20.853Z,13
2022-12-14T10:40:31.102Z,15
2022-12-14T10:41:20.798Z,13
2022-12-14T10:42:20.823Z,12
2022-12-14T10:43:20.816Z,14
2022-12-14T10:44:20.812Z,16
2022-12-14T10:45:48.882Z,16
2022-12-14T10:46:20.863Z,15
2022-12-14T10:47:20.953Z,15
2022-12-14T10:48:20.869Z,16
2022-12-14T10:49:20.823Z,15
2022-12-14T10:50:20.870Z,15
2022-12-14T10:51:20.799Z,14
2022-12-14T10:52:20.811Z,17
2022-12-14T10:53:20.888Z,15
2022-12-14T10:54:20.915Z,14
2022-12-14T10:55:20.905Z,13
2022-12-14T10:56:21.105Z,13
2022-12-14T10:57:20.818Z,14
2022-12-14T10:58:20.802Z,13
2022-12-14T10:59:20.921Z,15
2022-12-14T11:00:22.927Z,15
2022-12-14T11:01:20.914Z,13
2022-12-14T11:02:21.063Z,15
2022-12-14T11:03:20.892Z,14
2022-12-14T11:04:20.795Z,16
2022-12-14T11:05:20.799Z,15
2022-12-14T11:06:20.881Z,13
2022-12-14T11:07:20.896Z,16
2022-12-14T11:08:20.813Z,18
2022-12-14T11:09:20.803Z,15
2022-12-14T11:10:20.906Z,17
2022-12-14T11:11:21.015Z,14
2022-12-14T11:12:20.963Z,17
2022-12-14T11:13:20.801Z,13
2022-12-14T11:14:20.809Z,15
2022-12-14T11:15:20.802Z,16
2022-12-14T11:16:20.881Z,12
2022-12-14T11:17:20.897Z,14
2022-12-14T11:18:21.023Z,15
2022-12-14T11:19:20.864Z,14
2022-12-14T11:20:20.877Z,19
2022-12-14T11:21:20.824Z,17
2022-12-14T11:22:22.685Z,15
2022-12-14T11:23:20.812Z,26
2022-12-14T11:24:20.805Z,23
2022-12-14T11:25:20.863Z,20
2022-12-14T11:26:20.906Z,16
2022-12-14T11:27:20.835Z,15
2022-12-14T11:28:20.795Z,17
2022-12-14T11:29:20.809Z,18
2022-12-14T11:30:20.798Z,18
2022-12-14T11:31:21.013Z,19
2022-12-14T11:32:20.837Z,15
2022-12-14T11:33:20.797Z,16
2022-12-14T11:34:22.338Z,16
2022-12-14T11:35:20.835Z,15
2022-12-14T11:36:20.790Z,15
2022-12-14T11:37:20.863Z,14
2022-12-14T11:38:20.795Z,13
2022-12-14T11:39:20.787Z,17
2022-12-14T11:40:20.812Z,17
2022-12-14T11:41:20.787Z,16
2022-12-14T11:42:20.874Z,15
2022-12-14T11:43:20.916Z,15
2022-12-14T11:44:20.804Z,16
2022-12-14T11:45:20.854Z,17
2022-12-14T11:46:20.915Z,19
2022-12-14T11:47:20.831Z,16
2022-12-14T11:48:20.834Z,14
2022-12-14T11:49:20.797Z,19
2022-12-14T11:50:20.839Z,15
2022-12-14T11:51:20.868Z,16
2022-12-14T11:52:20.808Z,16
2022-12-14T11:53:20.800Z,14
2022-12-14T11:54:20.870Z,14
2022-12-14T11:55:26.464Z,13
2022-12-14T11:56:20.790Z,14
2022-12-14T11:57:20.903Z,15
2022-12-14T11:58:20.895Z,14
2022-12-14T11:59:20.873Z,13
2022-12-14T12:00:20.791Z,13
2022-12-14T12:01:20.859Z,13
2022-12-14T12:02:20.867Z,17
2022-12-14T12:03:20.867Z,17
2022-12-14T12:04:20.844Z,16
2022-12-14T12:05:20.795Z,14
2022-12-14T12:06:20.834Z,15
2022-12-14T12:07:20.969Z,15
2022-12-14T12:08:20.862Z,15
2022-12-14T12:09:20.869Z,16
2022-12-14T12:10:20.870Z,18
2022-12-14T12:11:20.875Z,21
2022-12-14T12:12:20.906Z,19
2022-12-14T12:13:20.782Z,17
2022-12-14T12:14:20.901Z,16
2022-12-14T12:15:20.871Z,20
2022-12-14T12:16:20.852Z,19
2022-12-14T12:17:20.820Z,23
2022-12-14T12:18:20.819Z,23
2022-12-14T12:19:20.777Z,28
2022-12-14T12:20:20.790Z,31
2022-12-14T12:21:20.840Z,37
2022-12-14T12:22:20.882Z,27
2022-12-14T12:23:20.854Z,21
2022-12-14T12:24:20.852Z,18
2022-12-14T12:25:33.619Z,17
2022-12-14T12:26:20.872Z,15
2022-12-14T12:27:20.849Z,13
2022-12-14T12:28:20.786Z,16
2022-12-14T12:29:20.888Z,17
2022-12-14T12:30:20.917Z,15
2022-12-14T12:31:21.004Z,15
2022-12-14T12:32:21.067Z,18
2022-12-14T12:33:21.050Z,17
2022-12-14T12:34:20.955Z,17
2022-12-14T12:35:21.015Z,13
2022-12-14T12:36:24.115Z,14
2022-12-14T12:37:28.156Z,13
2022-12-14T12:38:20.856Z,14
2022-12-14T12:39:20.859Z,15
2022-12-14T12:40:20.804Z,13
2022-12-14T12:41:20.793Z,15
2022-12-14T12:42:20.905Z,24
2022-12-14T12:43:20.791Z,16
2022-12-14T12:44:20.795Z,15
2022-12-14T12:45:20.836Z,14
2022-12-14T12:46:20.942Z,15
2022-12-14T12:47:28.191Z,14
2022-12-14T12:48:20.807Z,15
2022-12-14T12:49:20.792Z,14
2022-12-14T12:50:20.793Z,14
2022-12-14T12:51:20.791Z,14
2022-12-14T12:52:20.852Z,14
2022-12-14T12:53:20.835Z,12
2022-12-14T12:54:20.848Z,16
2022-12-14T12:55:20.782Z,15
2022-12-14T12:56:20.784Z,12
2022-12-14T12:57:20.819Z,14
2022-12-14T12:58:20.793Z,13
2022-12-14T12:59:20.800Z,13
2022-12-14T13:00:20.896Z,18
2022-12-14T13:01:21.061Z,16
2022-12-14T13:02:21.097Z,15
2022-12-14T13:03:20.956Z,15
2022-12-14T13:04:20.840Z,14
2022-12-14T13:06:20.801Z,14
2022-12-14T13:07:20.811Z,18
2022-12-14T13:08:20.787Z,16
2022-12-14T13:09:20.864Z,17
2022-12-14T13:10:20.842Z,15
2022-12-14T13:11:28.323Z,16
2022-12-14T13:12:20.859Z,16
2022-12-14T13:13:20.869Z,18
2022-12-14T13:14:20.867Z,14
2022-12-14T13:15:20.781Z,12
2022-12-14T13:16:26.533Z,12
2022-12-14T13:17:20.909Z,15
2022-12-14T13:18:41.196Z,14
2022-12-14T13:20:20.783Z,16
2022-12-14T13:21:20.790Z,14
2022-12-14T13:22:20.807Z,15
2022-12-14T13:23:43.441Z,13
2022-12-14T13:24:20.782Z,14
2022-12-14T13:25:20.827Z,12
2022-12-14T13:26:55.748Z,13
2022-12-14T13:27:20.798Z,16
2022-12-14T13:28:20.782Z,20
2022-12-14T13:29:20.781Z,16
2022-12-14T13:30:20.792Z,17
2022-12-14T13:31:20.888Z,17
2022-12-14T13:32:20.806Z,16
2022-12-14T13:33:20.818Z,15
2022-12-14T13:34:20.901Z,16
2022-12-14T13:35:20.780Z,16
2022-12-14T13:36:20.787Z,16
2022-12-14T13:37:20.803Z,16
2022-12-14T13:38:20.801Z,17
2022-12-14T13:39:20.824Z,15
2022-12-14T13:40:20.799Z,14
2022-12-14T13:41:20.963Z,15
2022-12-14T13:42:20.971Z,15
2022-12-14T13:43:20.776Z,16
2022-12-14T13:44:22.746Z,17
2022-12-14T13:45:20.778Z,18
2022-12-14T13:46:20.807Z,15
2022-12-14T13:47:20.854Z,17
2022-12-14T13:48:20.864Z,16
2022-12-14T13:49:20.859Z,18
2022-12-14T13:50:38.150Z,15
2022-12-14T13:51:20.789Z,16
2022-12-14T13:52:20.804Z,16
2022-12-14T13:53:20.813Z,17
2022-12-14T13:54:20.780Z,13
2022-12-14T13:55:20.840Z,15
2022-12-14T13:56:20.797Z,16
2022-12-14T13:57:20.879Z,20
2022-12-14T13:58:20.870Z,15
2022-12-14T13:59:20.786Z,13
2022-12-14T14:00:20.791Z,15
2022-12-14T14:01:20.865Z,18
2022-12-14T14:02:20.849Z,18
2022-12-14T14:03:20.967Z,17
2022-12-14T14:04:20.935Z,18
2022-12-14T14:05:20.892Z,16
2022-12-14T14:06:20.851Z,14
2022-12-14T14:07:20.805Z,15
2022-12-14T14:08:24.776Z,16
2022-12-14T14:09:20.778Z,16
2022-12-14T14:10:20.840Z,19
2022-12-14T14:11:36.505Z,17
2022-12-14T14:12:20.796Z,16
2022-12-14T14:13:20.819Z,16
2022-12-14T14:14:20.948Z,14
2022-12-14T14:15:25.876Z,16
2022-12-14T14:16:28.340Z,16
2022-12-14T14:17:20.852Z,15
2022-12-14T14:18:20.788Z,14
2022-12-14T14:19:20.825Z,15
2022-12-14T14:20:20.790Z,13
2022-12-14T14:21:20.833Z,13
2022-12-14T14:22:23.868Z,14
2022-12-14T14:23:20.769Z,14
2022-12-14T14:24:20.803Z,15
2022-12-14T14:25:20.823Z,17
2022-12-14T14:26:20.790Z,16
2022-12-14T14:27:20.804Z,13
2022-12-14T14:28:22.991Z,15
2022-12-14T14:29:21.049Z,15